地図

経路データ

SID SEASON NUMBER BASIN SUBBASIN NAME ISO_TIME NATURE LAT LON WMO_WIND WMO_PRES WMO_AGENCY TRACK_TYPE DIST2LAND LANDFALL IFLAG USA_AGENCY USA_ATCF_ID USA_LAT USA_LON USA_RECORD USA_STATUS USA_WIND USA_PRES USA_SSHS USA_R34_NE USA_R34_SE USA_R34_SW USA_R34_NW USA_R50_NE USA_R50_SE USA_R50_SW USA_R50_NW USA_R64_NE USA_R64_SE USA_R64_SW USA_R64_NW USA_POCI USA_ROCI USA_RMW USA_EYE TOKYO_LAT TOKYO_LON TOKYO_GRADE TOKYO_WIND TOKYO_PRES TOKYO_R50_DIR TOKYO_R50_LONG TOKYO_R50_SHORT TOKYO_R30_DIR TOKYO_R30_LONG TOKYO_R30_SHORT TOKYO_LAND CMA_LAT CMA_LON CMA_CAT CMA_WIND CMA_PRES HKO_LAT HKO_LON HKO_CAT HKO_WIND HKO_PRES NEWDELHI_LAT NEWDELHI_LON NEWDELHI_GRADE NEWDELHI_WIND NEWDELHI_PRES NEWDELHI_CI NEWDELHI_DP NEWDELHI_POCI REUNION_LAT REUNION_LON REUNION_TYPE REUNION_WIND REUNION_PRES REUNION_TNUM REUNION_CI REUNION_RMW REUNION_R34_NE REUNION_R34_SE REUNION_R34_SW REUNION_R34_NW REUNION_R50_NE REUNION_R50_SE REUNION_R50_SW REUNION_R50_NW REUNION_R64_NE REUNION_R64_SE REUNION_R64_SW REUNION_R64_NW BOM_LAT BOM_LON BOM_TYPE BOM_WIND BOM_PRES BOM_TNUM BOM_CI BOM_RMW BOM_R34_NE BOM_R34_SE BOM_R34_SW BOM_R34_NW BOM_R50_NE BOM_R50_SE BOM_R50_SW BOM_R50_NW BOM_R64_NE BOM_R64_SE BOM_R64_SW BOM_R64_NW BOM_ROCI BOM_POCI BOM_EYE BOM_POS_METHOD BOM_PRES_METHOD NADI_LAT NADI_LON NADI_CAT NADI_WIND NADI_PRES WELLINGTON_LAT WELLINGTON_LON WELLINGTON_WIND WELLINGTON_PRES DS824_LAT DS824_LON DS824_STAGE DS824_WIND DS824_PRES TD9636_LAT TD9636_LON TD9636_STAGE TD9636_WIND TD9636_PRES TD9635_LAT TD9635_LON TD9635_WIND TD9635_PRES TD9635_ROCI NEUMANN_LAT NEUMANN_LON NEUMANN_CLASS NEUMANN_WIND NEUMANN_PRES MLC_LAT MLC_LON MLC_CLASS MLC_WIND MLC_PRES USA_GUST BOM_GUST BOM_GUST_PER REUNION_GUST REUNION_GUST_PER USA_SEAHGT USA_SEARAD_NE USA_SEARAD_SE USA_SEARAD_SW USA_SEARAD_NW STORM_SPEED STORM_DIR
1980085S09170 1980 28 SP MM VAL 1980-03-25 00:00:00 TS -9.00000 170.000 main 737 737 O________OO_O_ jtwc_sh SH261980 -9.00000 170.000 30 -1 -9.00000 170.000 TC 30 -9.00000 170.000 1 30 -9.00000 170.000 TC 30 25 99
1980085S09170 1980 28 SP MM VAL 1980-03-25 03:00:00 TS -9.19526 171.270 main 794 794 P________PP_P_ SH261980 -9.18351 171.287 30 -1 -9.18351 171.287 TC 30 -9.23052 171.217 1 -9.18351 171.287 TC 30 25 100
1980085S09170 1980 28 SP MM VAL 1980-03-25 06:00:00 TS -9.41677 172.475 main 858 858 O________OP_O_ jtwc_sh SH261980 -9.40000 172.500 30 -1 -9.40000 172.500 TC 30 -9.46706 172.399 1 -9.40000 172.500 TC 30 23 102
1980085S09170 1980 28 SP MM VAL 1980-03-25 09:00:00 TS -9.68785 173.558 main 922 860 P________PP_P_ SH261980 -9.67715 173.575 30 -1 -9.67715 173.575 TC 30 -9.71994 173.506 1 -9.67715 173.575 TC 30 22 105
1980085S09170 1980 28 SP MM VAL 1980-03-25 12:00:00 TS -10.0000 174.618 30 997 wellington main 860 791 O_______OOO_O_ jtwc_sh SH261980 -10.0000 174.500 30 -1 -10.0000 176.500 30 997 -10.0000 174.500 TC 30 -10.0000 174.500 1 -10.0000 174.500 TC 30 20 108
1980085S09170 1980 28 SP MM VAL 1980-03-25 15:00:00 TS -10.3142 175.473 main 786 726 P_______PPP_P_ SH261980 -10.3345 175.288 30 -1 -10.1874 176.813 30 997 -10.3345 175.288 TC 30 -10.3168 175.358 1 -10.3345 175.288 TC 30 17 112
1980085S09170 1980 28 SP MM VAL 1980-03-25 18:00:00 TS -10.6468 176.206 main 726 656 O_______POP_O_ jtwc_sh SH261980 -10.7000 176.000 30 -1 -10.3998 177.151 30 997 -10.7000 176.000 TC 30 -10.6725 176.114 1 -10.7000 176.000 TC 30 16 115
1980085S09170 1980 28 SP MM VAL 1980-03-25 21:00:00 TS -10.9923 176.920 main 656 585 P_______PPP_P_ SH261980 -11.0773 176.750 30 -1 -10.6623 177.538 30 997 -11.0773 176.750 TC 30 -11.0670 176.812 1 -11.0773 176.750 TC 30 16 119
1980085S09170 1980 28 SP MM VAL 1980-03-26 00:00:00 TS -11.4000 177.600 30 997 wellington main 585 518 O_______OOO_O_ jtwc_sh SH261980 -11.5000 177.500 30 -1 -11.0000 178.000 30 997 -11.5000 177.500 TC 30 -11.5000 177.500 1 30 -11.5000 177.500 TC 30 16 123
1980085S09170 1980 28 SP MM VAL 1980-03-26 03:00:00 TS -11.8735 178.330 main 507 434 P_______PPP_P_ SH261980 -11.9848 178.250 30 -1 -11.4284 178.553 32 995 -11.9848 178.250 TC 30 -11.9841 178.270 1 31 -11.9853 178.325 TC 30 17 125
1980085S09170 1980 28 SP MM VAL 1980-03-26 06:00:00 TS -12.3850 179.042 main 434 370 O_______POP_O_ jtwc_sh SH261980 -12.5000 179.000 30 -1 -11.9254 179.175 35 993 -12.5000 179.000 TC 30 -12.4998 179.037 1 32 -12.5000 179.000 TC 30 17 128
1980085S09170 1980 28 SP MM VAL 1980-03-26 09:00:00 TS -12.9037 179.668 main 369 316 P_______PPP_P_ SH261980 -13.0149 179.765 32 -1 -12.4596 179.834 37 991 -13.0149 179.765 TC 32 -13.0155 179.786 1 33 -13.0138 179.191 TC 32 16 130
1980085S09170 1980 28 SP MM VAL 1980-03-26 12:00:00 TS -13.4000 180.300 40 990 wellington main 316 289 O_______OOO_O_ jtwc_sh SH261980 -13.5000 -179.500 35 0 -13.0000 -179.500 40 990 -13.5000 180.500 TC 35 -13.5000 -179.500 2 35 -13.5000 179.500 TC 35 16 125
1980085S09170 1980 28 SP MM VAL 1980-03-26 15:00:00 TS -13.8414 181.050 main 293 287 P_______PPP_P_ SH261980 -13.9223 -178.827 42 0 -13.5201 -178.855 43 987 -13.9223 -178.827 TC 42 -13.9180 -178.838 2 41 -13.9243 -179.403 TC 42 17 120
1980085S09170 1980 28 SP MM VAL 1980-03-26 18:00:00 TS -14.2477 181.795 main 302 294 O_______POP_O_ jtwc_sh SH261980 -14.3000 -178.200 50 0 -14.0373 -178.213 47 985 -14.3000 181.800 TC 50 -14.3012 -178.211 2 47 -14.3000 -178.200 TC 50 16 121
1980085S09170 1980 28 SP MM VAL 1980-03-26 21:00:00 TS -14.6331 182.421 main 322 322 P_______PPP_P_ SH261980 -14.6573 -177.592 55 0 -14.5359 -177.589 51 982 -14.6573 -177.592 TC 55 -14.6587 -177.604 2 53 -14.6565 -177.517 TC 55 14 123
1980085S09170 1980 28 SP MM VAL 1980-03-27 00:00:00 TS -15.0000 183.000 55 980 wellington main 358 358 O_______OOO_O_ jtwc_sh SH261980 -15.0000 -177.000 60 0 -15.0000 -177.000 55 980 -15.0000 183.000 TC 60 -15.0000 -177.000 2 60 -15.0000 -177.000 TC 60 13 124
1980085S09170 1980 28 SP MM VAL 1980-03-27 03:00:00 TS -15.3720 183.576 main 406 406 P_______PPP_P_ SH261980 -15.3573 -176.407 57 0 -15.4455 -176.524 51 982 -15.3573 -176.407 TC 57 -15.3429 -176.374 2 56 -15.3573 -176.407 TC 57 13 123
1980085S09170 1980 28 SP MM VAL 1980-03-27 06:00:00 TS -15.7247 184.155 main 404 380 O_______POP_O_ jtwc_sh SH261980 -15.7000 -175.800 55 0 -15.8520 -176.074 47 985 -15.7000 184.200 TC 55 -15.6718 -175.749 2 52 -15.7000 -175.800 TC 55 13 120
1980085S09170 1980 28 SP MM VAL 1980-03-27 09:00:00 TS -16.0439 184.768 main 372 352 P_______PPP_P_ SH261980 -16.0074 -175.150 50 0 -16.2076 -175.587 43 987 -16.0074 -175.150 TC 50 -15.9898 -175.124 2 48 -16.0074 -175.150 TC 50 13 117
1980085S09170 1980 28 SP MM VAL 1980-03-27 12:00:00 TS -16.3400 185.400 40 990 wellington main 352 347 O_______OOO_O_ jtwc_sh SH261980 -16.3000 -174.500 45 0 -16.5000 -175.000 40 990 -16.3000 185.500 TC 45 -16.3000 -174.500 2 45 -16.3000 -174.500 TC 45 13 116
1980085S09170 1980 28 SP MM VAL 1980-03-27 15:00:00 TS -16.6292 186.022 main 347 343 P_______PPP_P_ SH261980 -16.5997 -173.900 42 0 -16.7211 -174.268 37 991 -16.5997 -173.900 TC 42 -16.6258 -173.923 2 42 -16.5997 -173.900 TC 42 13 115
1980085S09170 1980 28 SP MM VAL 1980-03-27 18:00:00 TS -16.9062 186.674 main 355 355 O_______POP_O_ jtwc_sh SH261980 -16.9000 -173.300 40 0 -16.8831 -173.413 35 993 -16.9000 186.700 TC 40 -16.9423 -173.339 2 40 -16.9000 -173.300 TC 40 14 114
1980085S09170 1980 28 SP MM VAL 1980-03-27 21:00:00 TS -17.1962 187.326 main 380 380 P_______PPP_P_ SH261980 -17.2145 -172.695 37 0 -17.0033 -172.477 32 995 -17.2145 -172.695 TC 37 -17.2378 -172.711 2 37 -17.2145 -172.695 TC 37 14 114
1980085S09170 1980 28 SP MM VAL 1980-03-28 00:00:00 TS -17.4765 188.029 30 997 wellington main 414 414 O_______OOO_O_ jtwc_sh SH261980 -17.5000 -172.000 35 0 -17.1000 -171.500 30 997 -17.5000 188.000 TC 35 -17.5000 -172.000 2 35 -17.5000 -172.000 TC 35 16 110
1980085S09170 1980 28 SP MM VAL 1980-03-28 03:00:00 TS -17.7221 188.865 main 452 452 P________PP_P_ SH261980 -17.7224 -171.145 32 -1 -17.7224 -171.145 TC 32 -17.7212 -171.104 2 -17.7224 -171.145 TC 32 18 104
1980085S09170 1980 28 SP MM VAL 1980-03-28 06:00:00 TS -17.9014 189.816 main 506 506 O________OP_O_ jtwc_sh SH261980 -17.9000 -170.200 30 -1 -17.9000 189.800 TC 30 -17.9056 -170.135 2 -17.9000 -170.200 TC 30 19 100
1980085S09170 1980 28 SP MM VAL 1980-03-28 09:00:00 TS -18.0588 190.797 main 578 578 P________PP_P_ SH261980 -18.0577 -169.212 30 -1 -18.0577 -169.212 TC 30 -18.0619 -169.173 2 -18.0577 -169.212 TC 30 18 99
1980085S09170 1980 28 SP MM VAL 1980-03-28 12:00:00 TS -18.2000 191.700 main 645 645 O________OO_O_ jtwc_sh SH261980 -18.2000 -168.300 30 -1 -18.2000 191.700 TC 30 -18.2000 -168.300 1 -18.2000 -168.300 TC 30 16 101
1980085S09170 1980 28 SP MM VAL 1980-03-28 15:00:00 TS -18.3502 192.419 main 711 711 P________PP_P_ SH261980 -18.3569 -167.582 30 -1 -18.3569 -167.582 TC 30 -18.3300 -167.577 1 -18.3569 -167.582 TC 30 13 103
1980085S09170 1980 28 SP MM VAL 1980-03-28 18:00:00 TS -18.4889 193.005 main 764 764 O________OP_O_ jtwc_sh SH261980 -18.5000 -167.000 30 -1 -18.5000 193.000 TC 30 -18.4556 -166.980 1 -18.5000 -167.000 TC 30 11 104
1980085S09170 1980 28 SP MM VAL 1980-03-28 21:00:00 TS -18.6024 193.519 main 811 811 P________PP_P_ SH261980 -18.6104 -166.485 30 -1 -18.6104 -166.485 TC 30 -18.5786 -166.469 1 -18.6104 -166.485 TC 30 10 103
1980085S09170 1980 28 SP MM VAL 1980-03-29 00:00:00 TS -18.7000 194.000 main 859 O________OO_O_ jtwc_sh SH261980 -18.7000 -166.000 30 -1 -18.7000 194.000 TC 30 -18.7000 -166.000 1 30 -18.7000 -166.000 TC 30 9 102

デジタル台風データ・検索

IBTrACS Databaseについて

本データベースは、米国NOAAが公開する1842年以降の世界の熱帯低気圧のベストトラックデータアーカイブInternational Best Track Archive for Climate Stewardship (IBTrACS)を、ウェブで閲覧しやすい形式に変換したものです。

最終更新日:2021-10-21